createdAt,value
2022-08-07T00:01:44.121Z,17.10
2022-08-07T00:04:09.289Z,17.10
2022-08-07T00:06:36.860Z,17.10
2022-08-07T00:09:21.158Z,17.00
2022-08-07T00:11:56.012Z,17.00
2022-08-07T00:14:30.266Z,17.00
2022-08-07T00:16:59.195Z,17.00
2022-08-07T00:20:00.031Z,16.90
2022-08-07T00:22:24.718Z,16.90
2022-08-07T00:25:04.613Z,16.90
2022-08-07T00:27:35.925Z,16.90
2022-08-07T00:30:26.556Z,16.80
2022-08-07T00:32:58.595Z,16.80
2022-08-07T00:35:25.899Z,16.80
2022-08-07T00:37:53.289Z,16.70
2022-08-07T00:40:36.472Z,16.70
2022-08-07T00:44:00.496Z,16.70
2022-08-07T00:46:01.899Z,16.70
2022-08-07T00:48:31.990Z,16.70
2022-08-07T00:51:00.494Z,16.70
2022-08-07T00:53:39.349Z,16.70
2022-08-07T00:56:15.707Z,16.70
2022-08-07T00:58:46.541Z,16.60
2022-08-07T01:01:14.931Z,16.60
2022-08-07T01:03:55.333Z,16.60
2022-08-07T01:06:27.759Z,16.60
2022-08-07T01:08:55.734Z,16.60
2022-08-07T01:12:23.439Z,16.50
2022-08-07T01:14:12.667Z,16.50
2022-08-07T01:16:46.877Z,16.50
2022-08-07T01:19:19.037Z,16.50
2022-08-07T01:21:48.194Z,16.50
2022-08-07T01:24:21.208Z,16.40
2022-08-07T01:26:52.103Z,16.50
2022-08-07T01:29:23.156Z,16.40
2022-08-07T01:31:50.822Z,16.40
2022-08-07T01:34:18.884Z,16.40
2022-08-07T01:36:52.717Z,16.40
2022-08-07T01:39:26.816Z,16.30
2022-08-07T01:42:36.842Z,16.30
2022-08-07T01:44:54.020Z,16.20
2022-08-07T01:48:19.102Z,16.20
2022-08-07T01:50:08.955Z,16.20
2022-08-07T01:52:39.050Z,16.20
2022-08-07T01:55:22.506Z,16.10
2022-08-07T01:58:05.833Z,16.10
2022-08-07T02:00:49.010Z,16.10
2022-08-07T02:03:21.843Z,16.10
2022-08-07T02:06:02.506Z,16.10
2022-08-07T02:08:50.486Z,16.10
2022-08-07T02:11:31.122Z,16.10
2022-08-07T02:14:09.872Z,16.00
2022-08-07T02:16:43.029Z,16.00
2022-08-07T02:20:07.751Z,15.90
2022-08-07T02:22:02.772Z,15.90
2022-08-07T02:24:30.351Z,15.90
2022-08-07T02:27:02.783Z,15.90
2022-08-07T02:29:31.435Z,15.80
2022-08-07T02:32:00.164Z,15.80
2022-08-07T02:34:28.815Z,15.80
2022-08-07T02:36:57.955Z,15.80
2022-08-07T02:39:43.636Z,15.80
2022-08-07T02:42:16.691Z,15.70
2022-08-07T02:44:48.179Z,15.60
2022-08-07T02:47:23.605Z,15.60
2022-08-07T02:49:58.754Z,15.60
2022-08-07T02:52:32.891Z,15.60
2022-08-07T02:55:27.776Z,15.60
2022-08-07T02:57:55.406Z,15.60
2022-08-07T03:00:23.526Z,15.50
2022-08-07T03:02:55.077Z,15.50
2022-08-07T03:05:24.599Z,15.50
2022-08-07T03:08:05.353Z,15.50
2022-08-07T03:10:41.062Z,15.40
2022-08-07T03:13:19.752Z,15.40
2022-08-07T03:15:56.500Z,15.40
2022-08-07T03:18:34.679Z,15.40
2022-08-07T03:21:08.707Z,15.40
2022-08-07T03:24:19.903Z,15.30
2022-08-07T03:26:30.677Z,15.30
2022-08-07T03:29:00.403Z,15.20
2022-08-07T03:31:42.549Z,15.30
2022-08-07T03:34:18.789Z,15.30
2022-08-07T03:36:51.555Z,15.20
2022-08-07T03:39:46.456Z,15.20
2022-08-07T03:42:08.032Z,15.20
2022-08-07T03:44:37.506Z,15.10
2022-08-07T03:47:13.927Z,15.10
2022-08-07T03:49:47.684Z,15.10
2022-08-07T03:52:22.736Z,15.10
2022-08-07T03:54:57.445Z,15.10
2022-08-07T03:58:35.203Z,15.10
2022-08-07T04:00:29.368Z,15.00
2022-08-07T04:02:59.190Z,15.10
2022-08-07T04:05:39.758Z,15.00
2022-08-07T04:08:11.918Z,15.00
2022-08-07T04:10:42.714Z,15.00
2022-08-07T04:13:23.166Z,15.00
2022-08-07T04:15:55.006Z,15.00
2022-08-07T04:18:58.299Z,15.00
2022-08-07T04:21:09.027Z,15.00
2022-08-07T04:23:43.920Z,15.00
2022-08-07T04:26:23.656Z,15.00
2022-08-07T04:28:55.243Z,15.10
2022-08-07T04:31:39.020Z,15.00
2022-08-07T04:34:16.741Z,15.00
2022-08-07T04:36:45.224Z,15.00
2022-08-07T04:39:12.482Z,15.00
2022-08-07T04:41:39.260Z,15.00
2022-08-07T04:44:12.334Z,15.00
2022-08-07T04:47:08.976Z,15.10
2022-08-07T04:49:57.795Z,15.10
2022-08-07T04:52:51.368Z,15.10
2022-08-07T04:58:24.428Z,15.10
2022-08-07T04:59:18.146Z,15.10
2022-08-07T05:02:16.640Z,15.20
2022-08-07T05:04:57.048Z,15.20
2022-08-07T05:07:36.937Z,15.20
2022-08-07T05:10:23.143Z,15.30
2022-08-07T05:14:54.135Z,15.30
2022-08-07T05:16:04.614Z,15.30
2022-08-07T05:18:39.246Z,15.30
2022-08-07T05:21:12.447Z,15.30
2022-08-07T05:24:01.930Z,15.30
2022-08-07T05:26:32.615Z,15.40
2022-08-07T05:29:04.189Z,15.50
2022-08-07T05:31:38.483Z,15.50
2022-08-07T05:34:13.034Z,15.50
2022-08-07T05:36:49.119Z,15.50
2022-08-07T05:40:17.166Z,15.60
2022-08-07T05:42:12.393Z,15.60
2022-08-07T05:44:46.553Z,15.70
2022-08-07T05:48:00.286Z,15.70
2022-08-07T05:50:08.906Z,15.80
2022-08-07T05:52:36.323Z,15.80
2022-08-07T05:55:10.487Z,15.80
2022-08-07T05:57:41.945Z,15.80
2022-08-07T06:00:16.429Z,15.80
2022-08-07T06:02:48.410Z,15.90
2022-08-07T06:05:16.139Z,15.90
2022-08-07T06:08:14.392Z,16.00
2022-08-07T06:10:31.393Z,16.00
2022-08-07T06:12:59.768Z,16.00
2022-08-07T06:15:39.170Z,16.10
2022-08-07T06:18:09.334Z,16.10
2022-08-07T06:20:49.923Z,16.10
2022-08-07T06:24:36.878Z,16.20
2022-08-07T06:26:14.985Z,16.30
2022-08-07T06:28:52.771Z,16.30
2022-08-07T06:31:20.334Z,16.40
2022-08-07T06:33:51.287Z,16.50
2022-08-07T06:36:35.412Z,16.50
2022-08-07T06:40:18.023Z,16.60
2022-08-07T06:42:14.684Z,16.60
2022-08-07T06:44:43.046Z,16.70
2022-08-07T06:47:12.426Z,16.80
2022-08-07T06:49:50.824Z,16.80
2022-08-07T06:52:31.272Z,16.90
2022-08-07T06:55:32.991Z,16.90
2022-08-07T06:58:03.041Z,17.00
2022-08-07T07:00:36.866Z,17.10
2022-08-07T07:03:08.484Z,17.20
2022-08-07T07:06:04.860Z,17.30
2022-08-07T07:08:27.197Z,17.40
2022-08-07T07:10:57.268Z,17.40
2022-08-07T07:13:40.638Z,17.50
2022-08-07T07:16:30.128Z,17.60
2022-08-07T07:19:04.264Z,17.70
2022-08-07T07:22:05.373Z,17.70
2022-08-07T07:24:34.062Z,17.80
2022-08-07T07:27:04.451Z,17.90
2022-08-07T07:29:56.107Z,18.00
2022-08-07T07:32:24.006Z,18.10
2022-08-07T07:34:55.683Z,18.20
2022-08-07T07:37:49.737Z,18.30
2022-08-07T07:40:16.448Z,18.40
2022-08-07T07:42:47.337Z,18.60
2022-08-07T07:46:37.765Z,18.70
2022-08-07T07:48:35.009Z,18.80
2022-08-07T07:51:03.388Z,18.90
2022-08-07T07:53:48.153Z,19.00
2022-08-07T07:56:29.938Z,19.00
2022-08-07T07:59:00.299Z,19.10
2022-08-07T08:02:03.108Z,19.20
2022-08-07T08:04:18.560Z,19.40
2022-08-07T08:06:52.064Z,19.50
2022-08-07T08:09:23.259Z,19.60
2022-08-07T08:12:02.116Z,19.80
2022-08-07T08:14:36.612Z,19.90
2022-08-07T08:17:32.425Z,20.00
2022-08-07T08:20:18.591Z,20.20
2022-08-07T08:23:04.880Z,20.30
2022-08-07T08:25:56.136Z,20.40
2022-08-07T08:28:37.953Z,20.50
2022-08-07T08:31:15.684Z,20.60
2022-08-07T08:33:48.972Z,20.70
2022-08-07T08:36:25.615Z,20.70
2022-08-07T08:39:00.011Z,20.90
2022-08-07T08:41:58.243Z,21.00
2022-08-07T08:44:54.228Z,21.00
2022-08-07T08:47:52.923Z,21.20
2022-08-07T08:50:39.183Z,21.40
2022-08-07T08:53:19.167Z,21.60
2022-08-07T08:55:53.926Z,21.90
2022-08-07T08:58:30.088Z,22.10
2022-08-07T09:01:14.739Z,22.20
2022-08-07T09:03:56.724Z,22.30
2022-08-07T09:06:32.857Z,22.30
2022-08-07T09:09:29.823Z,22.30
2022-08-07T09:12:31.284Z,22.30
2022-08-07T09:16:23.131Z,22.20
2022-08-07T09:18:34.952Z,22.50
2022-08-07T09:21:34.207Z,22.60
2022-08-07T09:25:00.365Z,22.70
2022-08-07T09:28:00.352Z,22.80
2022-08-07T09:30:57.327Z,22.80
2022-08-07T09:33:57.032Z,22.80
2022-08-07T09:37:10.999Z,23.00
2022-08-07T09:40:05.193Z,23.00
2022-08-07T09:43:00.213Z,23.20
2022-08-07T09:47:25.245Z,23.30
2022-08-07T09:50:02.105Z,23.40
2022-08-07T09:52:35.391Z,23.60
2022-08-07T09:55:28.962Z,23.70
2022-08-07T09:58:11.760Z,23.70
2022-08-07T10:01:51.842Z,23.80
2022-08-07T10:04:47.863Z,23.80
2022-08-07T10:07:31.459Z,23.90
2022-08-07T10:10:21.627Z,24.00
2022-08-07T10:13:00.923Z,24.00
2022-08-07T10:15:51.930Z,24.10
2022-08-07T10:18:57.374Z,24.20
2022-08-07T10:22:15.811Z,24.30
2022-08-07T10:24:51.267Z,24.40
2022-08-07T10:27:46.843Z,24.30
2022-08-07T10:30:24.959Z,24.30
2022-08-07T10:33:02.395Z,24.20
2022-08-07T10:36:11.218Z,24.10
2022-08-07T10:39:00.566Z,24.40
2022-08-07T10:41:51.399Z,24.50
2022-08-07T10:44:51.619Z,24.70
2022-08-07T10:47:53.157Z,24.80
2022-08-07T10:50:28.775Z,24.80
2022-08-07T10:53:08.025Z,24.90
2022-08-07T10:55:53.317Z,24.90
2022-08-07T10:58:41.557Z,24.90
2022-08-07T11:01:35.152Z,25.00
2022-08-07T11:04:32.231Z,25.00
2022-08-07T11:07:24.645Z,25.10
2022-08-07T11:10:10.363Z,25.10
2022-08-07T11:14:41.819Z,25.20
2022-08-07T11:16:02.082Z,25.10
2022-08-07T11:18:50.715Z,25.00
2022-08-07T11:21:40.734Z,25.30
2022-08-07T11:24:18.729Z,25.20
2022-08-07T11:26:55.843Z,25.30
2022-08-07T11:30:10.108Z,25.30
2022-08-07T11:33:01.384Z,25.30
2022-08-07T11:35:59.650Z,25.20
2022-08-07T11:38:35.688Z,25.10
2022-08-07T11:41:18.199Z,25.20
2022-08-07T11:44:18.583Z,25.50
2022-08-07T11:47:10.039Z,25.60
2022-08-07T11:50:30.723Z,25.90
2022-08-07T11:53:22.017Z,25.80
2022-08-07T11:56:27.119Z,25.70
2022-08-07T11:58:57.675Z,25.50
2022-08-07T12:02:21.027Z,25.30
2022-08-07T12:05:28.611Z,25.50
2022-08-07T12:08:11.436Z,25.60
2022-08-07T12:11:08.118Z,26.10
2022-08-07T12:13:52.882Z,26.30
2022-08-07T12:16:33.978Z,26.60
2022-08-07T12:19:21.588Z,26.60
2022-08-07T12:22:37.520Z,26.70
2022-08-07T12:26:21.597Z,26.60
2022-08-07T12:28:17.364Z,26.40
2022-08-07T12:31:11.481Z,26.50
2022-08-07T12:33:56.574Z,27.00
2022-08-07T12:36:33.749Z,27.20
2022-08-07T12:39:09.356Z,27.50
2022-08-07T12:41:53.597Z,27.30
2022-08-07T12:44:21.799Z,27.60
2022-08-07T12:47:21.502Z,27.90
2022-08-07T12:50:38.311Z,27.60
2022-08-07T12:53:19.292Z,27.60
2022-08-07T12:56:04.261Z,27.90
2022-08-07T12:58:40.096Z,28.30
2022-08-07T13:01:32.893Z,28.30
2022-08-07T13:04:31.707Z,28.40
2022-08-07T13:08:18.715Z,28.50
2022-08-07T13:11:08.591Z,29.20
2022-08-07T13:13:59.997Z,29.80
2022-08-07T13:16:33.105Z,30.20
2022-08-07T13:19:51.424Z,30.70
2022-08-07T13:22:39.972Z,30.20
2022-08-07T13:25:15.416Z,30.20
2022-08-07T13:28:14.551Z,30.10
2022-08-07T13:31:02.000Z,30.70
2022-08-07T13:34:33.089Z,30.60
2022-08-07T13:36:51.417Z,30.70
2022-08-07T13:40:32.668Z,31.20
2022-08-07T13:42:25.610Z,31.80
2022-08-07T13:45:21.000Z,32.00
2022-08-07T13:48:05.826Z,32.00
2022-08-07T13:50:59.955Z,32.20
2022-08-07T13:53:23.932Z,32.90
2022-08-07T13:55:54.739Z,32.50
2022-08-07T13:58:50.434Z,33.00
2022-08-07T14:01:26.459Z,33.40
2022-08-07T14:04:07.311Z,33.70
2022-08-07T14:06:39.082Z,33.70
2022-08-07T14:09:42.181Z,33.90
2022-08-07T14:12:07.204Z,33.60
2022-08-07T14:14:44.948Z,33.50
2022-08-07T14:18:13.665Z,33.90
2022-08-07T14:20:42.729Z,33.90
2022-08-07T14:23:09.255Z,34.00
2022-08-07T14:25:45.836Z,34.30
2022-08-07T14:28:17.588Z,33.50
2022-08-07T14:30:52.202Z,32.40
2022-08-07T14:33:22.348Z,31.30
2022-08-07T14:35:56.525Z,30.50
2022-08-07T14:38:31.414Z,29.90
2022-08-07T14:41:14.713Z,29.20
2022-08-07T14:43:58.663Z,28.80
2022-08-07T14:46:33.391Z,28.30
2022-08-07T14:52:04.820Z,27.70
2022-08-07T14:54:44.838Z,27.40
2022-08-07T14:57:19.118Z,27.40
2022-08-07T15:00:05.383Z,27.40
2022-08-07T15:02:35.216Z,27.40
2022-08-07T15:05:04.745Z,27.50
2022-08-07T15:07:51.939Z,27.30
2022-08-07T15:10:26.090Z,27.30
2022-08-07T15:12:58.368Z,27.20
2022-08-07T15:15:38.542Z,27.10
2022-08-07T15:18:14.108Z,27.10
2022-08-07T15:21:03.786Z,27.00
2022-08-07T15:25:12.960Z,27.00
2022-08-07T15:26:42.221Z,27.00
2022-08-07T15:30:06.886Z,26.90
2022-08-07T15:32:02.920Z,26.80
2022-08-07T15:34:50.798Z,26.90
2022-08-07T15:38:04.657Z,26.80
2022-08-07T15:40:34.733Z,26.90
2022-08-07T15:43:11.250Z,26.90
2022-08-07T15:49:13.352Z,26.80
2022-08-07T15:54:33.932Z,26.60
2022-08-07T15:57:03.397Z,26.60
2022-08-07T15:59:39.177Z,26.40
2022-08-07T16:02:15.208Z,26.50
2022-08-07T16:04:43.995Z,26.50
2022-08-07T16:08:32.663Z,26.60
2022-08-07T16:10:14.886Z,26.60
2022-08-07T16:13:01.108Z,26.50
2022-08-07T16:15:57.179Z,26.60
2022-08-07T16:18:49.524Z,26.60
2022-08-07T16:22:03.435Z,26.60
2022-08-07T16:24:40.676Z,26.40
2022-08-07T16:27:40.783Z,26.30
2022-08-07T16:30:31.523Z,26.30
2022-08-07T16:34:01.306Z,26.40
2022-08-07T16:36:31.109Z,26.40
2022-08-07T16:39:40.584Z,26.30
2022-08-07T16:42:30.775Z,26.20
2022-08-07T16:46:34.669Z,26.20
2022-08-07T16:50:20.856Z,26.20
2022-08-07T16:52:50.841Z,26.00
2022-08-07T16:55:47.459Z,26.00
2022-08-07T16:59:10.291Z,26.00
2022-08-07T17:02:51.372Z,26.00
2022-08-07T17:06:19.697Z,25.90
2022-08-07T17:08:09.033Z,25.80
2022-08-07T17:10:54.815Z,25.80
2022-08-07T17:14:19.105Z,25.70
2022-08-07T17:16:55.735Z,25.70
2022-08-07T17:20:02.681Z,25.60
2022-08-07T17:22:42.700Z,25.60
2022-08-07T17:25:47.172Z,25.50
2022-08-07T17:28:19.445Z,25.40
2022-08-07T17:31:16.637Z,25.40
2022-08-07T17:34:33.620Z,25.30
2022-08-07T17:37:09.184Z,25.30
2022-08-07T17:40:30.214Z,25.30
2022-08-07T17:43:18.474Z,25.30
2022-08-07T17:45:55.149Z,25.20
2022-08-07T17:48:30.884Z,25.20
2022-08-07T17:51:21.288Z,25.20
2022-08-07T17:54:12.750Z,25.20
2022-08-07T17:56:52.539Z,25.10
2022-08-07T17:59:43.537Z,25.00
2022-08-07T18:02:34.504Z,25.00
2022-08-07T18:05:21.386Z,25.00
2022-08-07T18:08:24.183Z,25.00
2022-08-07T18:12:07.606Z,24.90
2022-08-07T18:14:16.499Z,24.80
2022-08-07T18:16:59.475Z,24.80
2022-08-07T18:21:08.956Z,24.70
2022-08-07T18:22:35.370Z,24.70
2022-08-07T18:25:19.533Z,24.60
2022-08-07T18:28:57.584Z,24.60
2022-08-07T18:31:50.267Z,24.60
2022-08-07T18:34:53.462Z,24.50
2022-08-07T18:38:56.987Z,24.40
2022-08-07T18:40:53.462Z,24.40
2022-08-07T18:43:57.493Z,24.30
2022-08-07T18:47:01.929Z,24.20
2022-08-07T18:50:39.377Z,24.20
2022-08-07T18:53:12.653Z,24.20
2022-08-07T18:56:02.209Z,24.10
2022-08-07T18:58:51.300Z,24.00
2022-08-07T19:02:32.452Z,24.00
2022-08-07T19:05:15.153Z,23.90
2022-08-07T19:08:05.505Z,23.80
2022-08-07T19:11:00.687Z,23.80
2022-08-07T19:13:45.422Z,23.70
2022-08-07T19:17:00.624Z,23.70
2022-08-07T19:19:50.727Z,23.60
2022-08-07T19:22:40.405Z,23.50
2022-08-07T19:26:23.558Z,23.50
2022-08-07T19:30:55.907Z,23.40
2022-08-07T19:31:37.142Z,23.30
2022-08-07T19:34:02.662Z,23.30
2022-08-07T19:36:34.284Z,23.20
2022-08-07T19:39:08.804Z,23.10
2022-08-07T19:41:45.009Z,23.00
2022-08-07T19:44:42.723Z,23.00
2022-08-07T19:47:16.115Z,22.80
2022-08-07T19:49:57.600Z,22.80
2022-08-07T19:52:31.058Z,22.70
2022-08-07T19:54:59.799Z,22.70
2022-08-07T19:58:00.065Z,22.70
2022-08-07T20:00:29.741Z,22.60
2022-08-07T20:03:34.960Z,22.50
2022-08-07T20:06:04.535Z,22.50
2022-08-07T20:08:35.578Z,22.40
2022-08-07T20:11:10.258Z,22.40
2022-08-07T20:13:41.768Z,22.30
2022-08-07T20:16:15.762Z,22.30
2022-08-07T20:19:00.267Z,22.20
2022-08-07T20:21:46.956Z,22.20
2022-08-07T20:24:28.820Z,22.10
2022-08-07T20:26:59.289Z,22.10
2022-08-07T20:29:47.950Z,22.00
2022-08-07T20:32:25.185Z,22.00
2022-08-07T20:34:56.058Z,21.90
2022-08-07T20:37:34.121Z,21.90
2022-08-07T20:40:31.610Z,21.90
2022-08-07T20:42:59.105Z,21.80
2022-08-07T20:46:25.001Z,21.80
2022-08-07T20:48:28.987Z,21.80
2022-08-07T20:51:00.385Z,21.70
2022-08-07T20:54:02.880Z,21.70
2022-08-07T20:56:16.566Z,21.60
2022-08-07T20:58:53.217Z,21.60
2022-08-07T21:01:23.162Z,21.60
2022-08-07T21:04:18.737Z,21.50
2022-08-07T21:06:53.253Z,21.50
2022-08-07T21:09:24.239Z,21.50
2022-08-07T21:11:57.072Z,21.40
2022-08-07T21:14:32.926Z,21.40
2022-08-07T21:18:01.819Z,21.40
2022-08-07T21:20:05.323Z,21.30
2022-08-07T21:22:44.942Z,21.30
2022-08-07T21:25:29.181Z,21.30
2022-08-07T21:28:08.012Z,21.30
2022-08-07T21:30:46.566Z,21.20
2022-08-07T21:33:42.360Z,21.20
2022-08-07T21:36:33.303Z,21.20
2022-08-07T21:39:45.575Z,21.20
2022-08-07T21:46:09.351Z,21.10
2022-08-07T21:48:56.955Z,21.10
2022-08-07T21:51:51.118Z,21.10
2022-08-07T21:54:48.417Z,21.00
2022-08-07T21:57:51.739Z,20.90
2022-08-07T22:00:25.210Z,21.00
2022-08-07T22:03:16.494Z,20.90
2022-08-07T22:05:58.742Z,20.90
2022-08-07T22:08:33.917Z,20.90
2022-08-07T22:11:04.478Z,20.90
2022-08-07T22:13:52.809Z,20.80
2022-08-07T22:16:42.457Z,20.80
2022-08-07T22:19:29.576Z,20.80
2022-08-07T22:22:27.479Z,20.70
2022-08-07T22:25:12.300Z,20.70
2022-08-07T22:28:07.909Z,20.60
2022-08-07T22:30:58.319Z,20.60
2022-08-07T22:33:53.221Z,20.50
2022-08-07T22:36:40.131Z,20.40
2022-08-07T22:39:51.777Z,20.40
2022-08-07T22:42:25.988Z,20.30
2022-08-07T22:45:02.408Z,20.20
2022-08-07T22:47:43.835Z,20.10
2022-08-07T22:50:40.466Z,20.10
2022-08-07T22:53:09.961Z,20.00
2022-08-07T22:55:42.140Z,19.90
2022-08-07T22:58:33.332Z,19.90
2022-08-07T23:01:23.424Z,19.80
2022-08-07T23:04:30.146Z,19.70
2022-08-07T23:07:39.985Z,19.70
2022-08-07T23:10:37.656Z,19.70
2022-08-07T23:13:48.943Z,19.60
2022-08-07T23:16:55.426Z,19.60
2022-08-07T23:19:51.056Z,19.50
2022-08-07T23:22:50.158Z,19.50
2022-08-07T23:25:28.644Z,19.40
2022-08-07T23:28:22.209Z,19.40
2022-08-07T23:31:18.590Z,19.30
2022-08-07T23:34:34.649Z,19.30
2022-08-07T23:37:22.363Z,19.30
2022-08-07T23:40:14.948Z,19.20
2022-08-07T23:43:16.827Z,19.10
2022-08-07T23:46:23.638Z,19.00
2022-08-07T23:48:59.541Z,19.00
2022-08-07T23:52:58.510Z,18.90
2022-08-07T23:54:43.804Z,18.90
2022-08-07T23:57:30.842Z,18.80
